Detalii statie VESTAGRAR MARGHITA [00001D0E]

Toti senzorii

Date Temperatura solului [C]Precipitatii [mm]Voltaj baterie [mV]Leaf Wetness [Min]HC Air temperature [C]HC Relative humidity [%]Punctul de roua [C]
medieminmaxsumaultimatimpmedieminmaxmediemediemin
2017-06-25 06:00:00 0 6922 15.16 13.53 16.49 0 0 0
2017-06-25 07:00:00 0 6992 17.42 16.49 18.1 0 0 0
2017-06-25 08:00:00 0 7166 21.45 18.41 25.1 11.83 3.1 0
2017-06-25 09:00:00 0 7196 25 24.51 25.28 75.83 20.2 18.5
2017-06-25 10:00:00 0 7158 27.5 25.54 28.77 11.8 3.2 0
2017-06-25 11:00:00 0 7284 27.41 24.11 30.04 0 0 0
2017-06-25 12:00:00 0 7294 30.38 28.56 32.2 0 0 0
2017-06-25 13:00:00 0 7284 29.86 28.65 31.19 0 0 0
2017-06-25 14:00:00 0 7294 32.3 29.33 33.74 11.55 0
2017-06-25 15:00:00 0 7108 29.28 26.51 33.45 32.99 10.9 9.6
2017-06-25 16:00:00 0 7138 28.94 27.16 31.11 34.46 11.3 9.8
2017-06-25 17:00:00 0 7274 28.61 28.37 29.06 23.89 5.2 -0.4
2017-06-25 18:00:00 0 7088 28.8 28.42 29.88 16.41 1.7 0
2017-06-25 19:00:00 0 7274 27.78 26.67 28.69 0 0 0
2017-06-25 20:00:00 0 6952 25.5 23.52 26.61 0 0 0
2017-06-25 21:00:00 0 6932 23.87 23.27 24.57 0 0 0
2017-06-25 22:00:00 3 6932 21.33 19.78 24.74 0 0 0
2017-06-25 23:00:00 0.8 6894 19.19 18.92 19.66 9.68 -0.4 0
2017-06-26 00:00:00 0.6 6884 19.1 18.67 19.55 8.45 0
2017-06-26 01:00:00 1.4 6904 19.41 18.83 20.21 0 0 0
2017-06-26 02:00:00 3.6 6904 18.31 18.13 18.58 0 0 0
2017-06-26 03:00:00 0 6894 18.17 17.99 18.36 0 0 0
2017-06-26 04:00:00 0 6884 18.26 18.2 18.35 0 0 0
2017-06-26 05:00:00 0 6884 18.16 17.91 18.35 0 0 0
2017-06-26 06:00:00 0 6914 18.27 17.96 18.9 0 0 0
2017-06-26 07:00:00 0 6992 19.37 18.18 20.75 0 0 0
2017-06-26 08:00:00 0 7128 20.75 19.74 21.22 0 0 0
2017-06-26 09:00:00 0 7236 22.42 21.52 23.33 0 0 0
2017-06-26 10:00:00 0 7294 24.12 22.12 26.43 0 0 0
2017-06-26 11:00:00 0 7304 25.43 24.06 26.66 0 0 0
2017-06-26 12:00:00 0 7304 26.86 25.1 28.18 0 0 0
2017-06-26 13:00:00 0 7284 27.03 25.92 29.25 0 0 0
2017-06-26 14:00:00 2.4 7294 22.54 21.31 26.09 0 0 0
2017-06-26 15:00:00 0 7284 23.57 22.23 25.81 0 0 0
2017-06-26 16:00:00 0 7294 27.54 26.29 28.56 0 0 0
2017-06-26 17:00:00 0 7284 27.32 26.06 28.67 0 0 0
2017-06-26 18:00:00 0 7118 25.57 24.83 25.99 0 0 0
2017-06-26 19:00:00 0 7040 24.86 23.97 25.46 0 0 0
2017-06-26 20:00:00 0 6962 21.89 20.94 23.52 16.66 3.8 0
2017-06-26 21:00:00 0 6942 20.25 19.46 20.93 0 0 0
2017-06-26 22:00:00 0 6942 18.68 18.03 19.56 0 0 0
2017-06-26 23:00:00 0 6932 17.83 17.52 18.47 0 0 0
2017-06-27 00:00:00 0 6922 17.34 17.06 17.6 0 0 0
2017-06-27 01:00:00 0 6914 17.89 17.55 18.19 0 0 0
2017-06-27 02:00:00 0 6904 17.7 17.41 17.89 0 0 0
2017-06-27 03:00:00 0 6894 17.25 16.49 17.92 0 0 0
2017-06-27 04:00:00 0 6884 16.81 16.6 16.94 0 0 0
2017-06-27 05:00:00 0 6894 16.15 15.49 16.98 0 0 0